createdAt,value
2019-05-17T00:00:37.394Z,10.50
2019-05-17T00:03:07.422Z,10.50
2019-05-17T00:05:37.621Z,10.50
2019-05-17T00:08:07.882Z,10.50
2019-05-17T00:10:37.739Z,10.50
2019-05-17T00:13:09.338Z,10.50
2019-05-17T00:15:38.424Z,10.50
2019-05-17T00:18:10.754Z,10.50
2019-05-17T00:20:40.736Z,10.50
2019-05-17T00:23:10.294Z,10.40
2019-05-17T00:25:39.730Z,10.50
2019-05-17T00:28:09.090Z,10.50
2019-05-17T00:30:38.368Z,10.50
2019-05-17T00:33:08.121Z,10.50
2019-05-17T00:36:02.382Z,10.50
2019-05-17T00:38:43.837Z,10.50
2019-05-17T00:41:02.323Z,10.50
2019-05-17T00:43:31.936Z,10.50
2019-05-17T00:46:01.287Z,10.50
2019-05-17T00:48:30.574Z,10.50
2019-05-17T00:51:02.177Z,10.50
2019-05-17T00:53:31.432Z,10.50
2019-05-17T00:56:01.011Z,10.50
2019-05-17T00:58:30.308Z,10.50
2019-05-17T01:00:59.579Z,10.50
2019-05-17T01:03:29.156Z,10.50
2019-05-17T01:05:58.796Z,10.50
2019-05-17T01:08:28.461Z,10.50
2019-05-17T01:10:57.768Z,10.50
2019-05-17T01:13:27.364Z,10.50
2019-05-17T01:15:57.045Z,10.50
2019-05-17T01:18:26.916Z,10.50
2019-05-17T01:20:56.756Z,10.50
2019-05-17T01:23:27.109Z,10.50
2019-05-17T01:25:56.957Z,10.50
2019-05-17T01:28:26.934Z,10.50
2019-05-17T01:30:56.975Z,10.50
2019-05-17T01:33:26.966Z,10.50
2019-05-17T01:35:57.289Z,10.50
2019-05-17T01:38:27.045Z,10.50
2019-05-17T01:40:56.780Z,10.40
2019-05-17T01:43:27.332Z,10.50
2019-05-17T01:45:57.403Z,10.40
2019-05-17T01:48:27.209Z,10.40
2019-05-17T01:50:56.936Z,10.40
2019-05-17T01:53:27.037Z,10.40
2019-05-17T01:55:56.906Z,10.50
2019-05-17T01:58:27.014Z,10.40
2019-05-17T02:00:57.388Z,10.40
2019-05-17T02:03:26.913Z,10.40
2019-05-17T02:05:56.586Z,10.40
2019-05-17T02:08:26.464Z,10.40
2019-05-17T02:10:57.435Z,10.40
2019-05-17T02:13:27.109Z,10.40
2019-05-17T02:15:56.687Z,10.30
2019-05-17T02:18:26.703Z,10.30
2019-05-17T02:20:57.008Z,10.30
2019-05-17T02:23:27.015Z,10.40
2019-05-17T02:25:57.275Z,10.40
2019-05-17T02:28:26.665Z,10.30
2019-05-17T02:30:56.435Z,10.30
2019-05-17T02:33:26.435Z,10.30
2019-05-17T02:36:02.787Z,10.40
2019-05-17T02:38:33.174Z,10.30
2019-05-17T02:41:03.704Z,10.30
2019-05-17T02:43:33.778Z,10.30
2019-05-17T02:46:03.981Z,10.30
2019-05-17T02:48:34.240Z,10.20
2019-05-17T02:51:03.953Z,10.20
2019-05-17T02:53:34.165Z,10.20
2019-05-17T02:56:03.830Z,10.20
2019-05-17T02:58:33.430Z,10.20
2019-05-17T03:01:04.432Z,10.20
2019-05-17T03:03:33.897Z,10.20
2019-05-17T03:06:03.656Z,10.20
2019-05-17T03:08:34.313Z,10.20
2019-05-17T03:11:03.999Z,10.20
2019-05-17T03:13:33.675Z,10.20
2019-05-17T03:16:03.730Z,10.20
2019-05-17T03:18:33.825Z,10.20
2019-05-17T03:21:04.199Z,10.20
2019-05-17T03:23:34.292Z,10.10
2019-05-17T03:26:04.108Z,10.20
2019-05-17T03:28:34.063Z,10.20
2019-05-17T03:31:08.257Z,10.20
2019-05-17T03:33:36.974Z,10.20
2019-05-17T03:36:09.754Z,10.20
2019-05-17T03:38:39.087Z,10.20
2019-05-17T03:41:18.437Z,10.20
2019-05-17T03:43:44.076Z,10.20
2019-05-17T03:46:13.877Z,10.20
2019-05-17T03:48:43.552Z,10.10
2019-05-17T03:51:13.261Z,10.10
2019-05-17T03:53:44.222Z,10.10
2019-05-17T03:56:13.855Z,10.10
2019-05-17T03:58:43.705Z,10.20
2019-05-17T04:01:14.056Z,10.10
2019-05-17T04:03:43.696Z,10.10
2019-05-17T04:06:13.495Z,10.20
2019-05-17T04:08:42.904Z,10.20
2019-05-17T04:11:22.235Z,10.20
2019-05-17T04:13:43.556Z,10.20
2019-05-17T04:16:14.050Z,10.20
2019-05-17T04:18:43.948Z,10.20
2019-05-17T04:21:13.945Z,10.20
2019-05-17T04:23:43.250Z,10.30
2019-05-17T04:26:13.608Z,10.30
2019-05-17T04:28:44.124Z,10.30
2019-05-17T04:31:13.727Z,10.20
2019-05-17T04:33:43.392Z,10.30
2019-05-17T04:36:13.299Z,10.30
2019-05-17T04:38:43.571Z,10.30
2019-05-17T04:41:13.533Z,10.40
2019-05-17T04:44:12.657Z,10.40
2019-05-17T04:46:42.896Z,10.40
2019-05-17T04:49:13.843Z,10.40
2019-05-17T04:51:43.793Z,10.40
2019-05-17T04:54:13.685Z,10.40
2019-05-17T04:56:43.433Z,10.40
2019-05-17T04:59:18.909Z,10.40
2019-05-17T05:01:48.386Z,10.50
2019-05-17T05:04:17.712Z,10.40
2019-05-17T05:06:47.308Z,10.50
2019-05-17T05:09:16.600Z,10.50
2019-05-17T05:11:57.072Z,10.50
2019-05-17T05:14:18.333Z,10.50
2019-05-17T05:16:47.704Z,10.50
2019-05-17T05:19:16.970Z,10.60
2019-05-17T05:21:46.279Z,10.60
2019-05-17T05:24:15.967Z,10.60
2019-05-17T05:26:45.684Z,10.60
2019-05-17T05:29:14.967Z,10.60
2019-05-17T05:31:44.253Z,10.60
2019-05-17T05:34:13.547Z,10.60
2019-05-17T05:36:43.202Z,10.70
2019-05-17T05:39:12.584Z,10.60
2019-05-17T05:41:42.664Z,10.60
2019-05-17T05:44:12.416Z,10.70
2019-05-17T05:46:42.324Z,10.70
2019-05-17T05:49:12.409Z,10.70
2019-05-17T05:51:42.524Z,10.80
2019-05-17T05:54:12.391Z,10.80
2019-05-17T05:56:42.575Z,10.90
2019-05-17T05:59:12.302Z,10.90
2019-05-17T06:01:42.187Z,10.90
2019-05-17T06:04:11.858Z,11.00
2019-05-17T06:06:41.746Z,11.00
2019-05-17T06:09:12.899Z,11.10
2019-05-17T06:11:42.167Z,11.10
2019-05-17T06:14:12.165Z,11.20
2019-05-17T06:16:42.493Z,11.20
2019-05-17T06:19:12.044Z,11.30
2019-05-17T06:21:42.650Z,11.30
2019-05-17T06:24:12.171Z,11.30
2019-05-17T06:26:42.144Z,11.30
2019-05-17T06:29:11.896Z,11.40
2019-05-17T06:31:43.350Z,11.50
2019-05-17T06:34:12.388Z,11.50
2019-05-17T06:36:42.448Z,11.50
2019-05-17T06:39:11.995Z,11.50
2019-05-17T06:41:41.889Z,11.60
2019-05-17T06:44:12.174Z,11.60
2019-05-17T06:46:42.017Z,11.60
2019-05-17T06:49:11.818Z,11.70
2019-05-17T06:51:42.615Z,11.70
2019-05-17T06:54:12.203Z,11.70
2019-05-17T06:56:41.955Z,11.70
2019-05-17T06:59:11.432Z,11.70
2019-05-17T07:01:41.098Z,11.70
2019-05-17T07:04:10.569Z,11.80
2019-05-17T07:06:40.612Z,11.80
2019-05-17T07:09:10.262Z,11.80
2019-05-17T07:11:40.033Z,11.80
2019-05-17T07:14:09.566Z,11.80
2019-05-17T07:16:39.683Z,11.80
2019-05-17T07:19:10.307Z,11.80
2019-05-17T07:21:40.569Z,11.90
2019-05-17T07:24:10.188Z,11.90
2019-05-17T07:26:39.536Z,11.90
2019-05-17T07:29:10.087Z,11.90
2019-05-17T07:31:40.408Z,11.80
2019-05-17T07:34:09.959Z,11.90
2019-05-17T07:36:39.715Z,11.90
2019-05-17T07:39:10.785Z,11.90
2019-05-17T07:41:40.542Z,12.00
2019-05-17T07:44:13.027Z,12.00
2019-05-17T07:46:42.584Z,12.10
2019-05-17T07:49:12.203Z,12.10
2019-05-17T07:51:41.483Z,12.10
2019-05-17T07:54:10.882Z,12.20
2019-05-17T07:56:40.497Z,12.30
2019-05-17T07:59:12.015Z,12.30
2019-05-17T08:01:41.436Z,12.40
2019-05-17T08:04:11.074Z,12.50
2019-05-17T08:06:40.478Z,12.40
2019-05-17T08:09:13.734Z,12.40
2019-05-17T08:11:41.208Z,12.50
2019-05-17T08:14:10.834Z,12.50
2019-05-17T08:16:40.181Z,12.60
2019-05-17T08:19:11.576Z,12.70
2019-05-17T08:21:41.275Z,12.60
2019-05-17T08:24:10.752Z,12.70
2019-05-17T08:26:40.518Z,12.70
2019-05-17T08:29:11.968Z,12.70
2019-05-17T08:31:41.786Z,12.80
2019-05-17T08:34:11.136Z,12.90
2019-05-17T08:36:40.717Z,12.90
2019-05-17T08:39:12.795Z,12.90
2019-05-17T08:41:42.087Z,13.00
2019-05-17T08:44:11.679Z,13.10
2019-05-17T08:46:41.288Z,13.10
2019-05-17T08:49:10.607Z,13.20
2019-05-17T08:51:40.126Z,13.20
2019-05-17T08:54:10.388Z,13.30
2019-05-17T08:56:40.421Z,13.20
2019-05-17T08:59:10.147Z,13.10
2019-05-17T09:01:41.735Z,13.20
2019-05-17T09:04:10.704Z,13.10
2019-05-17T09:06:40.312Z,13.20
2019-05-17T09:09:10.159Z,13.20
2019-05-17T09:11:39.669Z,13.20
2019-05-17T09:14:10.487Z,13.30
2019-05-17T09:16:40.321Z,13.30
2019-05-17T09:19:10.116Z,13.40
2019-05-17T09:21:39.828Z,13.60
2019-05-17T09:24:10.391Z,13.60
2019-05-17T09:26:40.100Z,13.70
2019-05-17T09:29:10.747Z,13.90
2019-05-17T09:31:40.585Z,13.90
2019-05-17T09:34:09.972Z,13.90
2019-05-17T09:36:40.910Z,13.90
2019-05-17T09:39:10.608Z,13.90
2019-05-17T09:41:40.225Z,13.90
2019-05-17T09:44:15.851Z,13.90
2019-05-17T09:46:41.142Z,14.00
2019-05-17T09:49:10.648Z,14.10
2019-05-17T09:51:40.306Z,14.30
2019-05-17T09:54:10.361Z,14.50
2019-05-17T09:56:39.748Z,14.70
2019-05-17T09:59:09.913Z,14.90
2019-05-17T10:01:39.750Z,15.10
2019-05-17T10:04:12.887Z,15.20
2019-05-17T10:06:40.230Z,15.30
2019-05-17T10:09:09.734Z,15.50
2019-05-17T10:11:39.944Z,15.60
2019-05-17T10:14:24.703Z,15.40
2019-05-17T10:16:40.774Z,15.30
2019-05-17T10:19:10.187Z,15.10
2019-05-17T10:21:40.017Z,15.00
2019-05-17T10:24:09.837Z,14.90
2019-05-17T10:26:39.432Z,14.80
2019-05-17T10:29:10.001Z,14.80
2019-05-17T10:31:39.924Z,14.80
2019-05-17T10:34:09.723Z,14.70
2019-05-17T10:36:40.187Z,14.70
2019-05-17T10:39:10.071Z,14.80
2019-05-17T10:41:40.650Z,15.00
2019-05-17T10:44:10.262Z,15.00
2019-05-17T10:46:40.713Z,15.10
2019-05-17T10:49:10.979Z,15.10
2019-05-17T10:51:40.840Z,15.30
2019-05-17T10:54:10.155Z,15.40
2019-05-17T10:56:40.213Z,15.40
2019-05-17T10:59:09.979Z,15.50
2019-05-17T11:01:39.369Z,15.60
2019-05-17T11:04:10.465Z,15.70
2019-05-17T11:06:39.858Z,15.80
2019-05-17T11:09:10.223Z,15.70
2019-05-17T11:11:40.189Z,15.80
2019-05-17T11:14:10.032Z,15.80
2019-05-17T11:16:39.285Z,15.80
2019-05-17T11:19:09.939Z,15.90
2019-05-17T11:21:39.292Z,15.90
2019-05-17T11:24:08.823Z,15.80
2019-05-17T11:26:38.212Z,15.70
2019-05-17T11:29:08.085Z,15.60
2019-05-17T11:31:37.504Z,15.60
2019-05-17T11:34:07.093Z,15.60
2019-05-17T11:36:36.409Z,15.70
2019-05-17T11:39:06.584Z,15.70
2019-05-17T11:41:36.317Z,15.70
2019-05-17T11:44:05.902Z,15.70
2019-05-17T11:46:36.481Z,15.70
2019-05-17T11:49:06.670Z,15.70
2019-05-17T11:51:35.960Z,15.60
2019-05-17T11:54:05.759Z,15.70
2019-05-17T11:56:35.425Z,15.80
2019-05-17T11:59:05.036Z,15.90
2019-05-17T12:01:34.629Z,16.00
2019-05-17T12:04:03.951Z,16.20
2019-05-17T12:06:33.422Z,16.30
2019-05-17T12:09:03.658Z,16.20
2019-05-17T12:11:33.413Z,16.10
2019-05-17T12:14:02.678Z,16.00
2019-05-17T12:16:32.291Z,15.90
2019-05-17T12:19:01.893Z,16.00
2019-05-17T12:21:31.572Z,16.00
2019-05-17T12:24:01.133Z,15.90
2019-05-17T12:26:30.568Z,16.00
2019-05-17T12:29:00.012Z,16.10
2019-05-17T12:31:29.287Z,16.20
2019-05-17T12:33:59.209Z,16.20
2019-05-17T12:36:28.542Z,16.30
2019-05-17T12:38:58.056Z,16.40
2019-05-17T12:41:28.580Z,16.50
2019-05-17T12:43:58.220Z,16.50
2019-05-17T12:46:27.760Z,16.60
2019-05-17T12:48:57.391Z,16.70
2019-05-17T12:51:27.043Z,16.80
2019-05-17T12:53:56.342Z,16.90
2019-05-17T12:56:25.618Z,17.00
2019-05-17T12:58:55.553Z,17.20
2019-05-17T13:01:25.196Z,17.30
2019-05-17T13:03:54.872Z,17.40
2019-05-17T13:06:24.478Z,17.60
2019-05-17T13:08:54.051Z,17.70
2019-05-17T13:11:23.584Z,17.80
2019-05-17T13:13:53.030Z,17.90
2019-05-17T13:16:22.456Z,17.90
2019-05-17T13:18:52.100Z,17.90
2019-05-17T13:21:21.707Z,17.80
2019-05-17T13:23:51.299Z,17.80
2019-05-17T13:26:20.884Z,17.90
2019-05-17T13:28:50.275Z,17.90
2019-05-17T13:31:19.935Z,18.00
2019-05-17T13:33:49.331Z,18.20
2019-05-17T13:36:18.676Z,18.10
2019-05-17T13:38:48.229Z,18.20
2019-05-17T13:41:17.663Z,18.30
2019-05-17T13:43:46.934Z,18.40
2019-05-17T13:46:16.215Z,18.60
2019-05-17T13:48:45.509Z,18.70
2019-05-17T13:51:15.252Z,18.70
2019-05-17T13:53:44.641Z,18.70
2019-05-17T13:56:14.805Z,18.80
2019-05-17T13:58:44.491Z,18.80
2019-05-17T14:01:13.924Z,19.00
2019-05-17T14:03:43.280Z,18.90
2019-05-17T14:06:12.927Z,19.10
2019-05-17T14:08:42.301Z,19.30
2019-05-17T14:11:11.600Z,19.50
2019-05-17T14:13:40.877Z,19.50
2019-05-17T14:16:10.790Z,19.50
2019-05-17T14:18:40.381Z,19.50
2019-05-17T14:21:09.761Z,19.40
2019-05-17T14:23:39.325Z,19.40
2019-05-17T14:26:08.591Z,19.50
2019-05-17T14:28:37.884Z,19.50
2019-05-17T14:31:10.094Z,19.50
2019-05-17T14:33:39.812Z,19.50
2019-05-17T14:36:10.673Z,19.60
2019-05-17T14:38:47.792Z,19.60
2019-05-17T14:41:17.502Z,19.50
2019-05-17T14:44:39.304Z,19.50
2019-05-17T14:47:08.562Z,19.50
2019-05-17T14:49:38.487Z,19.60
2019-05-17T14:52:08.138Z,19.60
2019-05-17T14:54:37.806Z,19.70
2019-05-17T14:57:07.396Z,20.00
2019-05-17T14:59:36.714Z,20.10
2019-05-17T15:02:06.318Z,20.30
2019-05-17T15:04:35.902Z,20.50
2019-05-17T15:07:05.181Z,20.80
2019-05-17T15:09:34.756Z,21.00
2019-05-17T15:12:04.413Z,21.10
2019-05-17T15:14:33.815Z,20.90
2019-05-17T15:17:03.180Z,20.80
2019-05-17T15:19:42.559Z,20.70
2019-05-17T15:22:17.596Z,21.00
2019-05-17T15:24:47.071Z,21.20
2019-05-17T15:27:16.345Z,21.50
2019-05-17T15:29:45.604Z,21.70
2019-05-17T15:32:14.906Z,21.70
2019-05-17T15:34:44.364Z,21.80
2019-05-17T15:37:13.947Z,21.90
2019-05-17T15:39:43.879Z,22.00
2019-05-17T15:42:14.104Z,21.70
2019-05-17T15:44:43.398Z,21.40
2019-05-17T15:47:12.944Z,21.00
2019-05-17T15:49:42.608Z,20.50
2019-05-17T15:52:12.218Z,20.40
2019-05-17T15:54:41.761Z,20.10
2019-05-17T15:57:11.065Z,20.10
2019-05-17T15:59:43.607Z,20.00
2019-05-17T16:02:12.904Z,20.10
2019-05-17T16:04:45.379Z,19.90
2019-05-17T16:07:14.792Z,19.90
2019-05-17T16:09:44.047Z,19.70
2019-05-17T16:12:13.403Z,19.50
2019-05-17T16:14:42.731Z,19.40
2019-05-17T16:17:12.033Z,19.40
2019-05-17T16:19:41.344Z,19.40
2019-05-17T16:22:11.014Z,19.40
2019-05-17T16:24:40.671Z,19.30
2019-05-17T16:27:10.356Z,19.30
2019-05-17T16:29:39.815Z,19.30
2019-05-17T16:32:09.375Z,19.30
2019-05-17T16:34:38.643Z,19.30
2019-05-17T16:37:08.242Z,19.20
2019-05-17T16:39:37.752Z,19.20
2019-05-17T16:42:10.116Z,19.10
2019-05-17T16:44:39.763Z,19.10
2019-05-17T16:47:09.065Z,19.00
2019-05-17T16:49:38.440Z,18.90
2019-05-17T16:52:08.011Z,18.80
2019-05-17T16:54:37.586Z,18.70
2019-05-17T16:57:06.958Z,18.60
2019-05-17T16:59:38.079Z,18.60
2019-05-17T17:02:10.072Z,18.50
2019-05-17T17:04:40.592Z,18.40
2019-05-17T17:07:11.313Z,18.40
2019-05-17T17:09:46.411Z,18.30
2019-05-17T17:12:15.960Z,18.30
2019-05-17T17:14:47.676Z,18.20
2019-05-17T17:17:49.160Z,18.20
2019-05-17T17:19:50.314Z,18.20
2019-05-17T17:22:22.318Z,18.20
2019-05-17T17:24:52.472Z,18.20
2019-05-17T17:27:21.802Z,18.10
2019-05-17T17:29:51.390Z,18.10
2019-05-17T17:32:24.508Z,18.00
2019-05-17T17:34:54.018Z,17.90
2019-05-17T17:37:23.560Z,17.90
2019-05-17T17:39:53.822Z,17.80
2019-05-17T17:42:23.516Z,17.80
2019-05-17T17:44:55.370Z,17.70
2019-05-17T17:47:29.195Z,17.60
2019-05-17T17:50:11.896Z,17.60
2019-05-17T17:52:41.451Z,17.50
2019-05-17T17:55:11.010Z,17.40
2019-05-17T17:57:41.616Z,17.40
2019-05-17T18:00:16.896Z,17.30
2019-05-17T18:02:51.294Z,17.30
2019-05-17T18:05:20.799Z,17.20
2019-05-17T18:07:52.727Z,17.20
2019-05-17T18:10:29.178Z,17.10
2019-05-17T18:12:58.838Z,17.10
2019-05-17T18:15:45.447Z,17.00
2019-05-17T18:18:15.275Z,17.00
2019-05-17T18:20:45.206Z,16.90
2019-05-17T18:23:14.511Z,16.90
2019-05-17T18:25:44.254Z,16.90
2019-05-17T18:28:13.600Z,16.90
2019-05-17T18:30:43.367Z,16.80
2019-05-17T18:36:03.224Z,16.80
2019-05-17T18:38:33.157Z,16.80
2019-05-17T18:41:02.519Z,16.70
2019-05-17T18:43:32.069Z,16.70
2019-05-17T18:46:01.655Z,16.70
2019-05-17T18:48:30.963Z,16.60
2019-05-17T18:51:00.234Z,16.60
2019-05-17T18:53:29.848Z,16.50
2019-05-17T18:55:59.263Z,16.50
2019-05-17T18:58:28.902Z,16.50
2019-05-17T19:01:00.969Z,16.50
2019-05-17T19:03:30.249Z,16.40
2019-05-17T19:05:59.552Z,16.40
2019-05-17T19:08:31.908Z,16.40
2019-05-17T19:11:01.213Z,16.30
2019-05-17T19:13:30.609Z,16.30
2019-05-17T19:15:59.928Z,16.30
2019-05-17T19:18:35.919Z,16.20
2019-05-17T19:21:03.517Z,16.20
2019-05-17T19:23:33.070Z,16.20
2019-05-17T19:26:02.655Z,16.20
2019-05-17T19:28:32.297Z,16.10
2019-05-17T19:31:01.912Z,16.00
2019-05-17T19:33:31.465Z,16.00
2019-05-17T19:36:00.784Z,16.00
2019-05-17T19:38:30.783Z,15.90
2019-05-17T19:41:00.328Z,15.90
2019-05-17T19:43:29.893Z,15.80
2019-05-17T19:45:59.628Z,15.80
2019-05-17T19:48:29.325Z,15.80
2019-05-17T19:50:59.000Z,15.80
2019-05-17T19:53:28.375Z,15.70
2019-05-17T19:55:58.421Z,15.80
2019-05-17T19:58:28.183Z,15.70
2019-05-17T20:00:57.746Z,15.70
2019-05-17T20:03:27.767Z,15.60
2019-05-17T20:05:57.118Z,15.60
2019-05-17T20:08:26.876Z,15.60
2019-05-17T20:10:56.539Z,15.60
2019-05-17T20:13:26.126Z,15.50
2019-05-17T20:15:55.659Z,15.50
2019-05-17T20:18:25.129Z,15.40
2019-05-17T20:20:54.392Z,15.40
2019-05-17T20:23:23.712Z,15.40
2019-05-17T20:25:53.014Z,15.40
2019-05-17T20:28:22.497Z,15.40
2019-05-17T20:30:52.080Z,15.30
2019-05-17T20:33:21.384Z,15.30
2019-05-17T20:35:50.678Z,15.30
2019-05-17T20:38:20.547Z,15.20
2019-05-17T20:40:50.119Z,15.20
2019-05-17T20:43:19.405Z,15.20
2019-05-17T20:45:48.969Z,15.20
2019-05-17T20:48:18.543Z,15.10
2019-05-17T20:50:48.118Z,15.10
2019-05-17T20:53:19.271Z,15.10
2019-05-17T20:55:49.191Z,15.00
2019-05-17T20:58:18.573Z,15.00
2019-05-17T21:00:48.144Z,14.90
2019-05-17T21:03:18.008Z,14.90
2019-05-17T21:05:47.570Z,14.90
2019-05-17T21:08:17.148Z,14.80
2019-05-17T21:10:46.752Z,14.80
2019-05-17T21:13:16.372Z,14.70
2019-05-17T21:15:47.783Z,14.70
2019-05-17T21:18:16.681Z,14.60
2019-05-17T21:20:45.992Z,14.50
2019-05-17T21:23:15.315Z,14.40
2019-05-17T21:25:44.583Z,14.30
2019-05-17T21:28:14.240Z,14.30
2019-05-17T21:30:43.792Z,14.20
2019-05-17T21:33:13.172Z,14.20
2019-05-17T21:35:42.524Z,14.10
2019-05-17T21:38:12.134Z,14.10
2019-05-17T21:40:41.462Z,14.00
2019-05-17T21:43:10.824Z,13.90
2019-05-17T21:45:40.551Z,13.90
2019-05-17T21:48:10.129Z,13.90
2019-05-17T21:50:39.406Z,13.80
2019-05-17T21:53:09.017Z,13.80
2019-05-17T21:55:38.311Z,13.70
2019-05-17T21:58:07.685Z,13.70
2019-05-17T22:01:24.251Z,13.60
2019-05-17T22:03:56.202Z,13.50
2019-05-17T22:06:30.456Z,13.50
2019-05-17T22:09:12.815Z,13.50
2019-05-17T22:11:44.696Z,13.40
2019-05-17T22:14:14.672Z,13.40
2019-05-17T22:16:43.990Z,13.40
2019-05-17T22:19:13.292Z,13.40
2019-05-17T22:21:42.583Z,13.40
2019-05-17T22:24:11.986Z,13.40
2019-05-17T22:26:41.656Z,13.40
2019-05-17T22:29:11.465Z,13.30
2019-05-17T22:31:41.101Z,13.30
2019-05-17T22:34:10.716Z,13.30
2019-05-17T22:36:40.324Z,13.20
2019-05-17T22:39:09.927Z,13.10
2019-05-17T22:41:39.584Z,13.10
2019-05-17T22:44:11.747Z,13.00
2019-05-17T22:46:41.656Z,13.00
2019-05-17T22:49:10.939Z,12.90
2019-05-17T22:51:40.236Z,12.90
2019-05-17T22:54:09.699Z,12.90
2019-05-17T22:56:39.309Z,12.80
2019-05-17T22:59:08.863Z,12.80
2019-05-17T23:01:38.401Z,12.70
2019-05-17T23:04:19.563Z,12.70
2019-05-17T23:06:48.908Z,12.60
2019-05-17T23:09:18.750Z,12.50
2019-05-17T23:11:48.391Z,12.50
2019-05-17T23:14:17.927Z,12.40
2019-05-17T23:16:51.549Z,12.40
2019-05-17T23:19:18.612Z,12.30
2019-05-17T23:21:47.875Z,12.20
2019-05-17T23:24:17.241Z,12.20
2019-05-17T23:26:46.572Z,12.10
2019-05-17T23:29:16.157Z,12.00
2019-05-17T23:31:45.446Z,12.00
2019-05-17T23:34:15.079Z,11.90
2019-05-17T23:36:44.949Z,11.90
2019-05-17T23:39:14.226Z,11.90
2019-05-17T23:41:43.556Z,11.90
2019-05-17T23:44:12.893Z,12.00
2019-05-17T23:46:42.234Z,12.00
2019-05-17T23:49:14.073Z,12.00
2019-05-17T23:51:43.635Z,12.00
2019-05-17T23:54:12.962Z,12.00
2019-05-17T23:56:42.541Z,12.00
2019-05-17T23:59:12.126Z,12.00
